Pittsburgh, Pennsylvania
Traffic Map
Current Weather Conditions
Pittsburgh, Pennsylvania
Overcast Light Snow
Overcast
33°
Feels Like: 33°
Wind Chill: 33° Ceiling: 500
Heat Index: 33° Visibility: mi
Dew Point: 30° Wind: 3mph
Humidity: 89% Direction: 270° (W)
Pressure: 29.91in Gusts: 0mph
Raw Report DataKAGC 042030Z 27003KT R28/6000VP6000FT -SN BR OVC005 01/M01 A2991 RMK AO2 CIG 004V010 P0001 T00061011 $
Traffic Incident Summary
Active as of:
Severity:
Category:
InformationThere was an issue retrieving the traffic information for this location. Please try a different location or try again shortly.
Advertisements
Track Severe Weather on mobile